Time;durP1;ratioP1;P1;durP2;ratioP2;P2;SDS_P1;SDS_P2;PMS_P1;PMS_P2;Temp;Humidity;BMP_temperature;BMP_pressure;BME280_temperature;BME280_humidity;BME280_pressure;Samples;Min_cycle;Max_cycle;Signal;HPM_P1;HPM_P2
2021/08/12 00:01:05;;;;;;;8.45;6.88;;;;;;;15.39;89.24;101396.56;4964974;28;20072;-85
2021/08/12 00:03:32;;;;;;;7.38;6.65;;;;;;;15.38;89.50;101391.31;4980696;28;20057;-86
2021/08/12 00:05:58;;;;;;;10.40;7.95;;;;;;;15.36;89.22;101394.00;4946830;28;20890;-88
2021/08/12 00:08:25;;;;;;;6.93;6.25;;;;;;;15.35;89.04;101391.41;4949049;28;20051;-85
2021/08/12 00:10:52;;;;;;;7.18;6.18;;;;;;;15.32;89.17;101392.31;4978998;28;20050;-89
2021/08/12 00:13:20;;;;;;;7.18;5.95;;;;;;;15.31;89.05;101389.72;4947927;28;20173;-87
2021/08/12 00:15:48;;;;;;;6.50;5.72;;;;;;;15.29;89.27;101388.84;4962899;28;20050;-89
2021/08/12 00:18:14;;;;;;;9.55;6.25;;;;;;;15.30;88.94;101382.69;4962719;28;20466;-86
2021/08/12 00:20:41;;;;;;;7.60;6.22;;;;;;;15.28;88.99;101373.91;4978356;28;20058;-85
2021/08/12 00:23:08;;;;;;;8.63;5.28;;;;;;;15.30;88.75;101380.91;4962374;28;20157;-87
2021/08/12 00:25:35;;;;;;;7.07;5.90;;;;;;;15.31;89.05;101384.44;4969285;28;20062;-86
2021/08/12 00:28:02;;;;;;;8.50;6.38;;;;;;;15.34;88.76;101384.38;4966556;28;20417;-89
2021/08/12 00:30:29;;;;;;;7.35;6.53;;;;;;;15.35;88.55;101386.13;4993277;28;20134;-88
2021/08/12 00:32:55;;;;;;;11.20;6.15;;;;;;;15.36;88.65;101390.50;4962651;28;20178;-85
2021/08/12 00:35:22;;;;;;;7.18;5.60;;;;;;;15.35;88.44;101389.63;4964201;28;20038;-89
2021/08/12 00:37:48;;;;;;;11.45;5.53;;;;;;;15.35;88.58;101388.75;4962725;28;20059;-87
2021/08/12 00:40:18;;;;;;;9.77;5.63;;;;;;;15.31;88.42;101381.78;4964771;28;20055;-86
2021/08/12 00:42:45;;;;;;;7.20;5.30;;;;;;;15.26;88.58;101387.13;4945318;28;20046;-91
2021/08/12 00:45:12;;;;;;;11.75;7.32;;;;;;;15.22;89.29;101388.94;4947463;28;20054;-87
2021/08/12 00:47:39;;;;;;;9.60;6.38;;;;;;;15.14;89.94;101390.84;4948149;28;20055;-85
2021/08/12 00:50:06;;;;;;;8.45;6.68;;;;;;;15.08;90.24;101384.81;4979002;28;20059;-89
2021/08/12 00:52:36;;;;;;;11.23;6.30;;;;;;;15.04;90.72;101387.50;4958946;28;20083;-89
2021/08/12 00:55:08;;;;;;;8.25;6.35;;;;;;;14.99;91.27;101384.06;4947640;28;20057;-88
2021/08/12 00:57:36;;;;;;;7.90;7.05;;;;;;;14.95;91.11;101378.84;4995603;28;20923;-87
2021/08/12 01:00:06;;;;;;;7.22;6.43;;;;;;;14.91;90.98;101378.03;4963422;28;20133;-88
2021/08/12 01:02:33;;;;;;;6.93;6.10;;;;;;;14.89;91.33;101385.09;4958763;28;20055;-88
2021/08/12 01:05:01;;;;;;;7.07;6.40;;;;;;;14.87;91.34;101390.41;4959570;28;20051;-89
2021/08/12 01:07:40;;;;;;;7.28;6.57;;;;;;;14.88;91.39;101380.72;4947099;28;20054;-90
2021/08/12 01:10:34;;;;;;;8.85;6.70;;;;;;;14.89;91.65;101378.06;4960384;28;20110;-88
2021/08/12 01:13:20;;;;;;;10.68;6.22;;;;;;;14.96;91.53;101386.72;4976039;28;20051;-89
2021/08/12 01:15:54;;;;;;;8.63;6.20;;;;;;;15.03;91.19;101382.22;4945480;28;20055;-90
2021/08/12 01:18:40;;;;;;;8.30;6.07;;;;;;;15.10;91.11;101389.16;4957351;28;20046;-87
2021/08/12 01:21:54;;;;;;;7.03;5.90;;;;;;;15.17;90.31;101377.59;4974252;28;20105;-89
2021/08/12 01:24:22;;;;;;;8.15;6.32;;;;;;;15.17;90.09;101374.09;4947574;28;20061;-89
2021/08/12 01:26:55;;;;;;;6.82;6.13;;;;;;;15.13;90.11;101373.28;4946417;28;20056;-87
2021/08/12 01:29:53;;;;;;;7.28;6.35;;;;;;;15.07;90.35;101367.25;4942299;28;20074;-85
2021/08/12 01:32:36;;;;;;;6.22;5.22;;;;;;;15.00;90.50;101372.59;4970392;28;20054;-87
2021/08/12 01:35:12;;;;;;;7.80;5.90;;;;;;;14.93;90.35;101370.09;4976461;28;20190;-89
2021/08/12 01:37:50;;;;;;;9.65;6.85;;;;;;;14.88;90.86;101365.75;4962049;28;20054;-89
2021/08/12 01:40:20;;;;;;;11.20;8.45;;;;;;;14.84;90.90;101369.34;4959554;28;20074;-90
2021/08/12 01:42:53;;;;;;;9.65;7.05;;;;;;;14.81;90.64;101374.66;4944122;28;20057;-90
2021/08/12 01:45:22;;;;;;;10.57;7.13;;;;;;;14.80;91.03;101372.91;4941962;28;20046;-90
2021/08/12 01:47:50;;;;;;;7.32;6.57;;;;;;;14.78;91.14;101371.19;4942793;28;20145;-85
2021/08/12 01:50:17;;;;;;;11.60;8.00;;;;;;;14.79;91.10;101375.59;4950473;28;20066;-90
2021/08/12 01:52:50;;;;;;;10.05;7.28;;;;;;;14.79;91.15;101370.31;4959190;28;20077;-85
2021/08/12 01:55:22;;;;;;;10.35;7.13;;;;;;;14.81;91.21;101374.66;4960759;28;20086;-90
2021/08/12 01:57:52;;;;;;;8.05;6.90;;;;;;;14.79;91.38;101372.94;4957864;28;20145;-86
2021/08/12 02:00:19;;;;;;;9.57;7.30;;;;;;;14.77;91.23;101372.97;4960517;28;20054;-88
2021/08/12 02:02:47;;;;;;;8.23;7.43;;;;;;;14.74;91.21;101378.28;4942656;28;20047;-85
2021/08/12 02:05:15;;;;;;;9.38;7.07;;;;;;;14.69;91.45;101359.91;4943707;28;20050;-89
2021/08/12 02:07:45;;;;;;;10.43;7.95;;;;;;;14.67;91.54;101356.41;4942053;28;20055;-90
2021/08/12 02:10:17;;;;;;;10.10;7.10;;;;;;;14.66;91.81;101353.81;4961884;28;20097;-88
2021/08/12 02:12:45;;;;;;;9.38;6.88;;;;;;;14.62;91.65;101352.09;4961446;28;20054;-86
2021/08/12 02:15:14;;;;;;;8.65;7.05;;;;;;;14.56;91.70;101351.28;4942983;28;20562;-88
2021/08/12 02:17:41;;;;;;;7.70;6.90;;;;;;;14.56;91.63;101367.09;4961138;28;20043;-88
2021/08/12 02:20:12;;;;;;;9.05;7.10;;;;;;;14.55;91.66;101359.22;4944114;28;20054;-88
2021/08/12 02:22:53;;;;;;;8.35;7.13;;;;;;;14.54;91.79;101357.47;4943224;28;20049;-87
2021/08/12 02:25:51;;;;;;;8.35;6.82;;;;;;;14.53;91.73;101363.63;4959873;28;20125;-87
2021/08/12 02:28:19;;;;;;;11.40;7.13;;;;;;;14.47;91.76;101356.69;4971908;28;20208;-86
2021/08/12 02:30:51;;;;;;;8.45;7.13;;;;;;;14.43;91.97;101360.25;4944297;28;20043;-85
2021/08/12 02:33:21;;;;;;;8.82;7.25;;;;;;;14.39;92.19;101356.78;4958736;28;20051;-90
2021/08/12 02:35:49;;;;;;;8.90;7.13;;;;;;;14.35;92.00;101359.47;4959838;28;20094;-89
2021/08/12 02:38:20;;;;;;;8.70;7.43;;;;;;;14.30;92.06;101362.19;4973608;28;20047;-86
2021/08/12 02:40:52;;;;;;;10.23;7.10;;;;;;;14.29;92.56;101362.16;4940913;28;20054;-86
2021/08/12 02:43:21;;;;;;;9.48;7.63;;;;;;;14.28;92.49;101368.34;4948011;28;20051;-89
2021/08/12 02:45:49;;;;;;;11.20;7.40;;;;;;;14.27;92.47;101359.56;4961321;28;20047;-86
2021/08/12 02:48:16;;;;;;;9.43;6.72;;;;;;;14.27;92.35;101356.94;4964163;28;20113;-88
2021/08/12 02:50:45;;;;;;;8.35;7.55;;;;;;;14.30;92.26;101348.13;4962730;28;20506;-87
2021/08/12 02:53:13;;;;;;;8.15;7.35;;;;;;;14.30;92.36;101346.38;4964449;28;20437;-89
2021/08/12 02:55:40;;;;;;;7.90;6.88;;;;;;;14.29;92.23;101347.25;4964245;28;20045;-89
2021/08/12 02:58:14;;;;;;;10.80;7.85;;;;;;;14.28;92.76;101350.78;4961983;28;20059;-89
2021/08/12 03:00:41;;;;;;;9.23;7.05;;;;;;;14.26;92.75;101349.06;4961742;28;20057;-88
2021/08/12 03:03:09;;;;;;;9.90;7.28;;;;;;;14.25;92.63;101349.94;4961542;28;20074;-89
2021/08/12 03:05:37;;;;;;;7.60;6.90;;;;;;;14.25;92.31;101347.31;4963302;28;20046;-86
2021/08/12 03:08:12;;;;;;;7.63;6.80;;;;;;;14.25;92.13;101348.19;4946771;28;20039;-89
2021/08/12 03:10:40;;;;;;;9.63;6.82;;;;;;;14.22;92.53;101349.09;4949259;28;20100;-89
2021/08/12 03:13:07;;;;;;;11.00;7.57;;;;;;;14.19;92.43;101350.91;4947621;28;20129;-88
2021/08/12 03:15:35;;;;;;;8.43;7.60;;;;;;;14.16;92.67;101345.69;4961117;28;20043;-88
2021/08/12 03:18:02;;;;;;;11.45;7.70;;;;;;;14.12;92.57;101351.84;4965870;28;20051;-87
2021/08/12 03:20:29;;;;;;;9.10;8.18;;;;;;;14.07;92.88;101342.25;4946774;28;20050;-89
2021/08/12 03:22:57;;;;;;;8.88;6.72;;;;;;;14.04;92.93;101339.69;4962743;28;20069;-87
2021/08/12 03:25:25;;;;;;;9.15;7.65;;;;;;;14.03;92.79;101347.59;4962648;28;20562;-86
2021/08/12 03:27:52;;;;;;;14.90;9.43;;;;;;;14.01;93.17;101346.72;4962116;28;20061;-91
2021/08/12 03:30:20;;;;;;;9.00;8.18;;;;;;;13.99;92.81;101346.75;4977381;28;20059;-90
2021/08/12 03:32:47;;;;;;;10.00;7.63;;;;;;;13.99;93.07;101346.75;4963103;28;20061;-88
2021/08/12 03:35:13;;;;;;;8.80;6.70;;;;;;;13.98;93.30;101358.16;4944079;28;20130;-90
2021/08/12 03:37:40;;;;;;;9.88;7.85;;;;;;;13.99;92.82;101353.81;4943046;28;20059;-87
2021/08/12 03:40:07;;;;;;;8.27;7.47;;;;;;;14.01;92.86;101349.38;4961742;28;20053;-89
2021/08/12 03:42:34;;;;;;;8.38;7.45;;;;;;;14.00;92.68;101345.88;4944409;28;20053;-89
2021/08/12 03:45:00;;;;;;;10.93;7.57;;;;;;;14.01;92.84;101347.59;4947213;28;20038;-90
2021/08/12 03:47:27;;;;;;;9.88;7.78;;;;;;;14.00;92.63;101345.00;4950585;28;20105;-90
2021/08/12 03:49:54;;;;;;;8.13;7.35;;;;;;;13.97;92.81;101345.91;4962150;28;20059;-86
2021/08/12 03:52:23;;;;;;;9.63;8.02;;;;;;;13.97;92.76;101339.78;4943385;28;20058;-89
2021/08/12 03:54:49;;;;;;;8.05;7.30;;;;;;;13.94;93.18;101339.81;4945070;28;20141;-90
2021/08/12 03:57:19;;;;;;;10.05;7.57;;;;;;;13.93;93.12;101346.81;4946805;28;20042;-90
2021/08/12 03:59:46;;;;;;;8.77;7.85;;;;;;;13.93;93.29;101345.97;4960063;28;20051;-89
2021/08/12 04:02:12;;;;;;;10.40;8.00;;;;;;;13.92;93.75;101337.19;4959668;28;20051;-86
2021/08/12 04:04:39;;;;;;;10.05;8.30;;;;;;;13.92;93.67;101342.44;4976776;28;20061;-88
2021/08/12 04:07:05;;;;;;;8.77;7.10;;;;;;;13.93;93.96;101340.69;4961211;28;20417;-86
2021/08/12 04:09:32;;;;;;;8.95;7.57;;;;;;;13.89;94.00;101343.34;4974889;28;20046;-89
2021/08/12 04:11:59;;;;;;;12.05;7.88;;;;;;;13.89;94.29;101345.13;4960614;28;20110;-91
2021/08/12 04:14:29;;;;;;;9.48;8.00;;;;;;;13.88;94.51;101351.28;4961537;28;20221;-90
2021/08/12 04:16:55;;;;;;;8.75;7.90;;;;;;;13.88;94.74;101356.53;4945260;28;20078;-90
2021/08/12 04:19:24;;;;;;;9.20;7.60;;;;;;;13.88;94.78;101346.91;4945677;28;20145;-87
2021/08/12 04:21:51;;;;;;;9.30;8.40;;;;;;;13.93;94.82;101346.81;4971948;28;20062;-91
2021/08/12 04:24:18;;;;;;;9.43;8.38;;;;;;;13.98;94.29;101357.31;4944517;28;20074;-89
2021/08/12 04:26:45;;;;;;;9.27;7.82;;;;;;;14.01;94.04;101354.63;4974782;28;20047;-88
2021/08/12 04:29:11;;;;;;;12.07;8.75;;;;;;;14.05;93.51;101358.97;4944833;28;20050;-91
2021/08/12 04:31:38;;;;;;;9.07;8.18;;;;;;;14.07;93.68;101357.19;4969310;28;20118;-90
2021/08/12 04:34:04;;;;;;;9.50;7.78;;;;;;;14.10;93.19;101358.94;4944754;28;20043;-90
2021/08/12 04:36:31;;;;;;;10.00;7.45;;;;;;;14.09;93.01;101358.03;4959276;28;20062;-89
2021/08/12 04:38:58;;;;;;;11.00;8.15;;;;;;;14.11;93.28;101348.38;4959001;28;20057;-89
2021/08/12 04:41:27;;;;;;;17.88;8.30;;;;;;;14.14;92.94;101352.72;4946866;28;20106;-91
2021/08/12 04:43:55;;;;;;;8.27;6.82;;;;;;;14.16;92.68;101350.97;4945378;28;20063;-89
2021/08/12 04:46:22;;;;;;;9.10;7.55;;;;;;;14.17;92.46;101342.13;4956956;28;20141;-87
2021/08/12 04:48:49;;;;;;;7.55;6.85;;;;;;;14.20;92.17;101347.38;4942011;28;20061;-90
2021/08/12 04:51:16;;;;;;;11.43;7.55;;;;;;;14.23;91.95;101348.19;4958142;28;20069;-84
2021/08/12 04:53:43;;;;;;;8.48;7.63;;;;;;;14.30;91.77;101348.13;4942789;28;20047;-90
2021/08/12 04:56:09;;;;;;;9.60;8.10;;;;;;;14.37;91.30;101357.69;4946122;28;20141;-90
2021/08/12 04:58:36;;;;;;;9.10;7.57;;;;;;;14.46;90.90;101349.66;4939075;28;20571;-87
2021/08/12 05:01:03;;;;;;;9.25;7.78;;;;;;;14.52;90.57;101346.06;4965953;28;20038;-90
2021/08/12 05:03:30;;;;;;;9.38;8.40;;;;;;;14.55;90.74;101346.91;4960411;28;20073;-88
2021/08/12 05:06:09;;;;;;;11.50;8.73;;;;;;;14.60;90.66;101344.22;4963519;28;20053;-86
2021/08/12 05:08:36;;;;;;;7.43;6.70;;;;;;;14.68;90.11;101358.16;4967016;28;20050;-86
2021/08/12 05:11:11;;;;;;;12.70;7.30;;;;;;;14.80;89.83;101354.47;4980215;28;20069;-87
2021/08/12 05:13:38;;;;;;;8.70;7.50;;;;;;;14.93;88.92;101347.25;4966076;28;20056;-87
2021/08/12 05:16:05;;;;;;;10.23;7.72;;;;;;;15.09;88.11;101352.28;4952239;28;20047;-86
2021/08/12 05:18:32;;;;;;;7.72;7.00;;;;;;;15.22;87.56;101359.94;4943385;28;20050;-87
2021/08/12 05:21:01;;;;;;;8.75;7.65;;;;;;;15.38;86.85;101357.94;4957910;28;20057;-87
2021/08/12 05:23:27;;;;;;;7.88;6.70;;;;;;;15.57;85.99;101354.94;4959673;28;20051;-88
2021/08/12 05:25:54;;;;;;;9.00;6.88;;;;;;;15.75;84.60;101358.13;4958685;28;20113;-86
2021/08/12 05:28:21;;;;;;;8.73;6.88;;;;;;;15.91;84.22;101354.31;4941052;28;20149;-84
2021/08/12 05:30:50;;;;;;;7.90;6.80;;;;;;;16.01;83.61;101353.25;4958333;28;20137;-84
2021/08/12 05:33:17;;;;;;;7.30;6.43;;;;;;;16.08;83.12;101356.63;4956713;28;20050;-87
2021/08/12 05:35:44;;;;;;;10.23;7.63;;;;;;;16.08;82.88;101353.97;4957571;28;20081;-87
2021/08/12 05:38:10;;;;;;;6.88;6.25;;;;;;;16.05;82.76;101354.06;4942127;28;20624;-84
2021/08/12 05:40:37;;;;;;;8.05;7.10;;;;;;;16.01;82.70;101347.09;4960499;28;20054;-84
2021/08/12 05:43:04;;;;;;;10.00;7.32;;;;;;;15.98;82.61;101350.69;4944051;28;20051;-88
2021/08/12 05:45:30;;;;;;;7.78;6.97;;;;;;;15.94;82.70;101345.47;4957341;28;20051;-88
2021/08/12 05:47:57;;;;;;;6.60;5.97;;;;;;;15.97;82.72;101354.22;4947763;28;20054;-87
2021/08/12 05:50:24;;;;;;;6.93;6.18;;;;;;;16.01;82.47;101352.38;4953142;28;20090;-88
2021/08/12 05:52:53;;;;;;;8.00;6.60;;;;;;;16.14;82.19;101360.91;4958569;28;20058;-88
2021/08/12 05:55:19;;;;;;;6.47;5.88;;;;;;;16.33;81.38;101356.97;4947332;28;20177;-87
2021/08/12 05:57:49;;;;;;;6.90;5.57;;;;;;;16.56;80.01;101363.53;4941524;28;20042;-84
2021/08/12 06:00:16;;;;;;;6.45;5.80;;;;;;;16.78;78.70;101349.78;4964316;28;20079;-88
2021/08/12 06:02:43;;;;;;;6.53;5.70;;;;;;;16.95;77.81;101345.03;4944069;28;20055;-84
2021/08/12 06:05:10;;;;;;;7.38;6.25;;;;;;;17.03;77.10;101350.97;4947127;28;20545;-86
2021/08/12 06:07:37;;;;;;;9.13;6.50;;;;;;;17.02;76.82;101345.72;4966287;28;20426;-87
2021/08/12 06:10:04;;;;;;;6.00;5.40;;;;;;;16.95;76.81;101347.66;4948386;28;20042;-88
2021/08/12 06:12:31;;;;;;;6.93;6.35;;;;;;;16.91;77.40;101345.13;4945623;28;20613;-89
2021/08/12 06:14:57;;;;;;;6.65;5.90;;;;;;;16.87;77.65;101344.31;4956551;28;20228;-86
2021/08/12 06:17:24;;;;;;;5.68;5.18;;;;;;;16.86;77.90;101338.13;4960192;28;20039;-87
2021/08/12 06:19:51;;;;;;;6.93;6.32;;;;;;;16.89;78.05;101339.84;4960019;28;20046;-88
2021/08/12 06:22:20;;;;;;;12.73;8.45;;;;;;;16.91;77.66;101342.47;4948816;28;20445;-90
2021/08/12 06:24:47;;;;;;;8.77;6.13;;;;;;;16.95;77.61;101342.38;4961385;28;20055;-87
2021/08/12 06:27:14;;;;;;;6.88;6.10;;;;;;;17.01;77.45;101344.00;4964709;28;20074;-86
2021/08/12 06:29:42;;;;;;;6.00;5.47;;;;;;;17.09;77.12;101338.50;4964255;28;20047;-89
2021/08/12 06:32:12;;;;;;;6.28;5.60;;;;;;;17.13;77.22;101342.81;4962280;28;20117;-89
2021/08/12 06:34:39;;;;;;;7.68;5.97;;;;;;;17.18;76.98;101351.50;4950408;28;20070;-88
2021/08/12 06:37:08;;;;;;;10.13;6.65;;;;;;;17.22;76.99;101353.16;4965585;28;20070;-89
2021/08/12 06:39:36;;;;;;;6.13;5.05;;;;;;;17.28;76.94;101349.50;4963832;28;22672;-88
2021/08/12 06:42:04;;;;;;;10.50;5.88;;;;;;;17.35;76.36;101345.78;4982282;28;20053;-87
2021/08/12 06:44:30;;;;;;;5.72;5.22;;;;;;;17.43;76.31;101354.41;4961280;28;20066;-88
2021/08/12 06:46:57;;;;;;;8.07;5.40;;;;;;;17.53;75.71;101349.72;4965059;28;20086;-90
2021/08/12 06:49:24;;;;;;;6.10;5.50;;;;;;;17.66;75.04;101339.66;4964700;28;20057;-86
2021/08/12 06:51:50;;;;;;;6.60;5.18;;;;;;;17.82;73.27;101348.03;4964113;28;20102;-88
2021/08/12 06:54:17;;;;;;;6.30;4.95;;;;;;;17.96;72.55;101343.25;4949088;28;20061;-88
2021/08/12 06:56:44;;;;;;;9.18;5.38;;;;;;;18.11;71.83;101346.38;4962383;28;20521;-91
2021/08/12 06:59:11;;;;;;;5.82;5.22;;;;;;;18.23;71.41;101350.47;4965223;28;20058;-91
2021/08/12 07:01:37;;;;;;;6.07;5.47;;;;;;;18.38;71.40;101347.31;4950388;28;20078;-90
2021/08/12 07:04:04;;;;;;;5.30;4.80;;;;;;;18.60;70.86;101344.00;4944705;28;20043;-88
2021/08/12 07:06:36;;;;;;;4.53;4.18;;;;;;;18.97;69.53;101345.53;4945885;28;20051;-87
2021/08/12 07:09:03;;;;;;;5.90;4.82;;;;;;;19.48;67.38;101330.53;4962590;28;20050;-91
2021/08/12 07:11:29;;;;;;;4.07;3.78;;;;;;;20.03;65.06;101332.09;4945777;28;20062;-90
2021/08/12 07:13:56;;;;;;;5.32;4.82;;;;;;;20.66;61.69;101333.19;4959058;28;20391;-87
2021/08/12 07:16:23;;;;;;;5.22;4.55;;;;;;;21.29;59.54;101335.03;4975983;28;20617;-89
2021/08/12 07:18:49;;;;;;;4.25;3.95;;;;;;;21.50;59.70;101337.69;4961751;28;20474;-87
2021/08/12 07:21:24;;;;;;;8.35;5.00;;;;;;;21.48;59.33;101334.22;4947472;28;20078;-87
2021/08/12 07:23:51;;;;;;;7.28;4.55;;;;;;;21.52;60.21;101329.63;4961815;28;20123;-90
2021/08/12 07:26:18;;;;;;;4.95;4.35;;;;;;;21.48;60.33;101339.53;4951724;28;20046;-90
2021/08/12 07:28:47;;;;;;;4.63;4.22;;;;;;;21.44;60.09;101337.97;4963088;28;20078;-89
2021/08/12 07:31:16;;;;;;;6.47;5.57;;;;;;;21.42;60.54;101337.13;4945508;28;20047;-90
2021/08/12 07:33:47;;;;;;;6.43;4.28;;;;;;;21.51;60.41;101342.09;4939520;28;20154;-88
2021/08/12 07:36:13;;;;;;;4.93;4.40;;;;;;;21.63;60.24;101336.25;4945873;28;20050;-91
2021/08/12 07:38:40;;;;;;;4.70;4.25;;;;;;;21.81;59.91;101339.88;4975692;28;20043;-90
2021/08/12 07:41:07;;;;;;;5.28;4.00;;;;;;;22.05;59.17;101337.03;4944855;28;20042;-88
2021/08/12 07:43:34;;;;;;;5.88;4.25;;;;;;;22.31;58.31;101338.47;4943086;28;20205;-87
2021/08/12 07:46:01;;;;;;;4.90;4.25;;;;;;;22.58;57.21;101345.25;4970130;28;20120;-91
2021/08/12 07:48:27;;;;;;;6.05;4.75;;;;;;;22.95;55.82;101343.44;4968681;28;20048;-87
2021/08/12 07:50:54;;;;;;;5.30;4.82;;;;;;;23.34;53.98;101342.38;4965081;28;20061;-88
2021/08/12 07:53:21;;;;;;;4.47;4.07;;;;;;;23.60;53.87;101343.69;4983580;28;20053;-88
2021/08/12 07:55:48;;;;;;;4.78;4.18;;;;;;;23.65;53.38;101347.91;4971269;28;20426;-85
2021/08/12 07:58:15;;;;;;;4.15;3.85;;;;;;;23.62;53.39;101347.16;4985573;28;20046;-83
2021/08/12 08:00:50;;;;;;;4.25;3.95;;;;;;;23.66;52.01;101345.16;4960754;28;20042;-85
2021/08/12 08:03:18;;;;;;;4.80;4.00;;;;;;;23.65;53.02;101351.47;4964139;28;20050;-88
2021/08/12 08:05:47;;;;;;;5.00;4.50;;;;;;;23.98;52.26;101347.09;4973380;28;20057;-85
2021/08/12 08:08:14;;;;;;;5.93;4.75;;;;;;;24.11;51.84;101340.13;4987136;28;20054;-86
2021/08/12 08:10:41;;;;;;;7.85;4.25;;;;;;;24.22;51.74;101335.06;4986347;28;20042;-87
2021/08/12 08:13:08;;;;;;;4.18;3.88;;;;;;;24.64;51.12;101342.56;4968205;28;20571;-86
2021/08/12 08:15:35;;;;;;;5.25;4.20;;;;;;;25.19;49.71;101341.16;4986783;28;20053;-84
2021/08/12 08:18:03;;;;;;;4.40;4.00;;;;;;;25.63;48.42;101348.38;4973244;28;20066;-86
2021/08/12 08:20:31;;;;;;;4.90;4.15;;;;;;;26.17;47.98;101346.84;4987019;28;20047;-89
2021/08/12 08:23:05;;;;;;;3.92;3.63;;;;;;;26.62;46.92;101342.13;4986829;28;20039;-85
2021/08/12 08:25:32;;;;;;;5.68;4.13;;;;;;;26.30;46.37;101339.72;4985835;28;20483;-89
2021/08/12 08:28:03;;;;;;;4.40;3.67;;;;;;;25.81;48.24;101348.16;4990073;28;20097;-83
2021/08/12 08:30:33;;;;;;;5.65;4.40;;;;;;;25.44;49.13;101343.25;4982866;28;20057;-86
2021/08/12 08:33:00;;;;;;;4.82;4.43;;;;;;;25.37;49.51;101339.22;4984664;28;20102;-87
2021/08/12 08:35:29;;;;;;;5.85;4.00;;;;;;;25.69;48.58;101339.06;4984955;28;20122;-87
2021/08/12 08:38:00;;;;;;;3.78;3.47;;;;;;;26.21;47.18;101335.78;4972463;28;20065;-87
2021/08/12 08:40:28;;;;;;;4.97;3.58;;;;;;;26.64;46.17;101328.59;4972022;28;20112;-88
2021/08/12 08:43:00;;;;;;;4.68;4.28;;;;;;;26.57;44.92;101334.38;4987782;28;20098;-87
2021/08/12 08:48:16;;;;;;;4.70;4.30;;;;;;;26.15;46.52;101335.31;4990115;28;20066;-84
2021/08/12 08:50:48;;;;;;;3.95;3.65;;;;;;;26.29;46.41;101331.78;4990799;28;20058;-84
2021/08/12 08:53:19;;;;;;;4.10;3.70;;;;;;;27.01;43.94;101323.47;4988991;28;20042;-87
2021/08/12 08:55:57;;;;;;;3.83;3.40;;;;;;;27.71;42.45;101325.78;4989160;28;20054;-86
2021/08/12 08:58:27;;;;;;;3.90;3.38;;;;;;;28.66;41.41;101325.25;4977684;28;20047;-85
2021/08/12 09:01:03;;;;;;;6.10;3.72;;;;;;;29.50;38.98;101322.47;4983557;28;20043;-85
2021/08/12 09:03:51;;;;;;;4.00;3.65;;;;;;;30.08;38.11;101317.94;4992924;28;20056;-85
2021/08/12 09:06:24;;;;;;;3.47;3.17;;;;;;;30.88;36.79;101314.03;5006896;28;20046;-87
2021/08/12 09:08:51;;;;;;;3.50;3.20;;;;;;;31.33;35.82;101316.50;4974772;28;20046;-88
2021/08/12 09:11:22;;;;;;;3.22;3.03;;;;;;;31.97;34.90;101319.97;4988372;28;20057;-85
2021/08/12 09:13:49;;;;;;;4.25;3.83;;;;;;;32.22;33.47;101322.34;4971884;28;20058;-84
2021/08/12 09:16:40;;;;;;;6.15;3.50;;;;;;;32.12;32.13;101319.56;4973014;28;20397;-87
2021/08/12 09:19:22;;;;;;;3.28;3.08;;;;;;;32.22;33.23;101320.47;4972450;28;20063;-85
2021/08/12 09:21:52;;;;;;;3.08;2.88;;;;;;;31.72;33.44;101309.59;4956406;28;20078;-87
2021/08/12 09:24:27;;;;;;;3.95;3.35;;;;;;;31.91;33.55;101311.53;4967693;28;20046;-86
2021/08/12 09:26:56;;;;;;;3.10;2.90;;;;;;;32.36;32.34;101305.69;4968068;28;20130;-85
2021/08/12 09:29:50;;;;;;;3.67;3.40;;;;;;;32.68;32.55;101301.81;4969702;28;20057;-84
2021/08/12 09:32:25;;;;;;;3.60;3.30;;;;;;;32.84;31.41;101314.00;4974872;28;20082;-86
2021/08/12 09:34:52;;;;;;;3.17;2.97;;;;;;;32.97;31.49;101307.28;4969574;28;20077;-88
2021/08/12 09:37:22;;;;;;;3.58;3.28;;;;;;;33.73;30.79;101312.81;4970851;28;20054;-83
2021/08/12 09:40:02;;;;;;;4.10;3.78;;;;;;;34.40;29.49;101307.16;4951830;28;20062;-84
2021/08/12 09:42:34;;;;;;;3.22;3.03;;;;;;;34.97;28.89;101306.84;4970218;28;20070;-88
2021/08/12 09:45:05;;;;;;;4.90;3.03;;;;;;;35.65;27.57;101297.06;4953311;28;20065;-86
2021/08/12 09:47:33;;;;;;;3.53;3.33;;;;;;;35.59;27.89;101305.88;4953602;28;20039;-86
2021/08/12 09:50:08;;;;;;;3.15;2.95;;;;;;;35.33;28.54;101295.00;4969347;28;20059;-83
2021/08/12 09:52:38;;;;;;;5.28;3.40;;;;;;;34.94;27.99;101297.13;4969161;28;20027;-85
2021/08/12 09:55:12;;;;;;;4.30;3.95;;;;;;;34.65;28.81;101297.38;4970934;28;20058;-87
2021/08/12 09:57:49;;;;;;;3.50;2.83;;;;;;;34.65;28.68;101297.38;4972068;28;20102;-87
2021/08/12 10:00:30;;;;;;;3.85;3.10;;;;;;;35.31;27.70;101289.72;4970860;28;20056;-86
2021/08/12 10:02:59;;;;;;;3.78;3.30;;;;;;;35.45;27.20;101293.75;4971518;28;20110;-87
2021/08/12 10:05:27;;;;;;;3.33;3.00;;;;;;;35.61;27.75;101288.38;4971153;28;20093;-87
2021/08/12 10:08:01;;;;;;;3.50;3.30;;;;;;;36.22;26.75;101288.25;4971909;28;20054;-85
2021/08/12 10:10:34;;;;;;;3.50;3.30;;;;;;;36.45;26.39;101292.25;4955810;28;20047;-86
2021/08/12 10:13:02;;;;;;;4.05;3.65;;;;;;;36.80;26.01;101285.59;4957727;28;20102;-90
2021/08/12 10:15:37;;;;;;;3.45;3.15;;;;;;;36.88;25.71;101287.50;4971211;28;20147;-83
2021/08/12 10:18:07;;;;;;;3.42;2.97;;;;;;;37.34;25.15;101287.78;4974301;28;20043;-88
2021/08/12 10:20:40;;;;;;;4.28;3.47;;;;;;;37.42;25.04;101286.91;4970664;28;20663;-89
2021/08/12 10:23:13;;;;;;;3.75;3.45;;;;;;;37.93;24.67;101293.88;4983865;28;20086;-87
2021/08/12 10:25:43;;;;;;;2.75;2.55;;;;;;;38.18;24.43;101284.50;4972191;28;20115;-88
2021/08/12 10:28:12;;;;;;;4.95;3.10;;;;;;;38.52;24.33;101288.72;4990382;28;20402;-89
2021/08/12 10:30:48;;;;;;;3.25;3.10;;;;;;;39.20;23.37;101283.38;4988438;28;20065;-84
2021/08/12 10:33:19;;;;;;;3.83;3.42;;;;;;;39.74;22.98;101277.75;4973057;28;20046;-88
2021/08/12 10:35:46;;;;;;;2.78;2.67;;;;;;;40.03;22.68;101274.09;4972606;28;20062;-88
2021/08/12 10:38:17;;;;;;;3.17;2.92;;;;;;;39.25;22.44;101276.47;4990406;28;20121;-86
2021/08/12 10:40:52;;;;;;;3.85;2.92;;;;;;;39.33;22.78;101276.34;4989440;28;20055;-86
2021/08/12 10:43:26;;;;;;;3.95;3.47;;;;;;;39.38;21.78;101273.91;5006154;28;20073;-86
2021/08/12 10:46:02;;;;;;;3.13;2.95;;;;;;;39.86;22.23;101271.59;4970563;28;20051;-90
2021/08/12 10:48:33;;;;;;;3.10;2.90;;;;;;;40.51;21.13;101265.31;4968787;28;20135;-88
2021/08/12 10:51:10;;;;;;;3.58;3.38;;;;;;;40.44;21.18;101264.41;4967495;28;20221;-86
2021/08/12 10:53:46;;;;;;;3.85;3.55;;;;;;;40.65;20.79;101269.03;4966854;28;20114;-85
2021/08/12 10:56:20;;;;;;;3.08;2.88;;;;;;;40.88;21.29;101267.97;4951941;28;20054;-89
2021/08/12 10:58:50;;;;;;;4.47;3.03;;;;;;;41.40;20.27;101274.88;4957027;28;20055;-84
2021/08/12 11:01:39;;;;;;;2.58;2.47;;;;;;;40.57;21.07;101269.19;4970152;28;20050;-88
2021/08/12 11:04:12;;;;;;;3.22;2.97;;;;;;;40.65;21.48;101271.78;4974026;28;20094;-88
2021/08/12 11:06:41;;;;;;;4.00;3.70;;;;;;;40.53;21.37;101268.72;4985110;28;20408;-88
2021/08/12 11:09:11;;;;;;;3.08;2.88;;;;;;;38.45;23.42;101275.94;4974705;28;20046;-85
2021/08/12 11:11:42;;;;;;;3.53;3.25;;;;;;;36.89;25.46;101270.09;4959170;28;20046;-87
2021/08/12 11:14:11;;;;;;;3.67;3.35;;;;;;;35.58;26.54;101266.09;4972639;28;20483;-87
2021/08/12 11:16:41;;;;;;;3.22;2.72;;;;;;;35.17;26.90;101263.09;4984312;28;20068;-86
2021/08/12 11:19:29;;;;;;;3.35;3.08;;;;;;;36.31;25.84;101271.91;4995913;28;20050;-86
2021/08/12 11:21:59;;;;;;;;;;;;;;;37.18;24.88;101264.09;4989506;28;20047;-85
2021/08/12 11:24:25;;;;;;;2.65;2.50;;;;;;;37.83;24.42;101267.63;4977285;28;19922;-85
2021/08/12 11:26:54;;;;;;;3.30;2.50;;;;;;;37.88;23.80;101265.19;4991470;28;20054;-89
2021/08/12 11:29:28;;;;;;;3.30;2.95;;;;;;;37.15;23.91;101264.41;4989233;28;20114;-85
2021/08/12 11:32:14;;;;;;;2.55;2.45;;;;;;;37.62;23.65;101262.75;4970441;28;20058;-88
2021/08/12 11:34:53;;;;;;;4.43;4.03;;;;;;;38.32;23.31;101265.66;4975227;28;20050;-89
2021/08/12 11:37:30;;;;;;;3.30;3.00;;;;;;;39.32;21.85;101260.97;4977393;28;20054;-85
2021/08/12 11:40:09;;;;;;;2.97;2.80;;;;;;;38.82;22.24;101263.38;4957220;28;20074;-86